createdAt,value
2022-09-15T00:00:30.842Z,12.88
2022-09-15T00:02:57.806Z,10.82
2022-09-15T00:05:24.710Z,12.65
2022-09-15T00:07:51.712Z,10.45
2022-09-15T00:10:19.090Z,12.77
2022-09-15T00:12:46.122Z,10.48
2022-09-15T00:15:15.203Z,13.07
2022-09-15T00:20:10.859Z,15.20
2022-09-15T00:22:38.281Z,17.70
2022-09-15T00:25:06.216Z,14.63
2022-09-15T00:27:34.016Z,12.23
2022-09-15T00:30:01.294Z,13.85
2022-09-15T00:32:29.930Z,16.88
2022-09-15T00:34:56.907Z,16.55
2022-09-15T00:37:23.925Z,14.38
2022-09-15T00:39:50.943Z,22.02
2022-09-15T00:42:20.363Z,13.15
2022-09-15T00:44:49.540Z,15.05
2022-09-15T00:47:19.654Z,17.58
2022-09-15T00:49:53.919Z,15.68
2022-09-15T00:52:32.482Z,13.82
2022-09-15T00:55:16.129Z,18.23
2022-09-15T00:57:55.857Z,13.65
2022-09-15T01:00:25.890Z,16.00
2022-09-15T01:02:53.374Z,13.98
2022-09-15T01:05:23.870Z,15.60
2022-09-15T01:08:01.952Z,15.55
2022-09-15T01:10:35.291Z,14.47
2022-09-15T01:13:06.918Z,32.65
2022-09-15T01:15:48.680Z,36.38
2022-09-15T01:18:23.495Z,38.03
2022-09-15T01:21:21.283Z,32.78
2022-09-15T01:24:06.286Z,30.50
2022-09-15T01:26:46.122Z,30.08
2022-09-15T01:29:21.922Z,31.35
2022-09-15T01:32:19.086Z,38.53
2022-09-15T01:34:55.568Z,42.30
2022-09-15T01:37:29.735Z,40.22
2022-09-15T01:39:59.677Z,30.05
2022-09-15T01:42:30.489Z,23.33
2022-09-15T01:45:07.210Z,22.65
2022-09-15T01:47:35.851Z,19.92
2022-09-15T01:50:22.874Z,18.80
2022-09-15T01:52:53.098Z,16.55
2022-09-15T01:55:29.735Z,17.17
2022-09-15T01:57:58.176Z,22.48
2022-09-15T02:00:25.064Z,18.83
2022-09-15T02:03:05.174Z,18.05
2022-09-15T02:05:41.511Z,23.70
2022-09-15T02:08:25.566Z,15.25
2022-09-15T02:11:06.046Z,21.45
2022-09-15T02:13:39.309Z,22.33
2022-09-15T02:16:20.286Z,23.80
2022-09-15T02:19:04.544Z,18.83
2022-09-15T02:21:40.708Z,22.95
2022-09-15T02:24:20.070Z,17.92
2022-09-15T02:26:50.247Z,15.15
2022-09-15T02:29:20.942Z,21.13
2022-09-15T02:31:50.865Z,21.55
2022-09-15T02:34:26.154Z,18.42
2022-09-15T02:36:54.689Z,17.83
2022-09-15T02:39:26.321Z,13.77
2022-09-15T02:41:53.455Z,15.38
2022-09-15T02:44:20.285Z,16.15
2022-09-15T02:46:47.172Z,13.75
2022-09-15T02:49:14.416Z,16.70
2022-09-15T02:51:41.210Z,12.55
2022-09-15T02:54:08.442Z,12.15
2022-09-15T02:56:35.345Z,11.50
2022-09-15T02:59:02.155Z,12.43
2022-09-15T03:01:32.382Z,14.15
2022-09-15T03:03:59.400Z,17.15
2022-09-15T03:06:28.089Z,13.27
2022-09-15T03:08:57.549Z,15.38
2022-09-15T03:11:27.035Z,16.48
2022-09-15T03:13:56.398Z,24.35
2022-09-15T03:16:24.206Z,16.77
2022-09-15T03:18:52.391Z,18.90
2022-09-15T03:21:19.628Z,20.50
2022-09-15T03:23:46.553Z,22.15
2022-09-15T03:26:13.545Z,18.23
2022-09-15T03:28:40.786Z,19.42
2022-09-15T03:31:08.963Z,13.32
2022-09-15T03:33:37.045Z,14.70
2022-09-15T03:36:04.100Z,13.63
2022-09-15T03:38:31.165Z,18.48
2022-09-15T03:41:01.727Z,16.20
2022-09-15T03:43:30.484Z,18.90
2022-09-15T03:45:57.935Z,18.98
2022-09-15T03:48:25.800Z,19.10
2022-09-15T03:50:52.769Z,14.65
2022-09-15T03:53:20.358Z,17.92
2022-09-15T03:55:49.140Z,17.88
2022-09-15T03:58:17.550Z,15.90
2022-09-15T04:00:45.943Z,15.15
2022-09-15T04:03:13.512Z,13.90
2022-09-15T04:05:40.885Z,17.17
2022-09-15T04:08:12.186Z,15.98
2022-09-15T04:10:40.352Z,18.23
2022-09-15T04:13:07.577Z,19.95
2022-09-15T04:15:34.843Z,22.70
2022-09-15T04:18:01.708Z,22.95
2022-09-15T04:20:28.573Z,18.70
2022-09-15T04:22:55.431Z,19.70
2022-09-15T04:25:22.248Z,16.77
2022-09-15T04:27:49.199Z,20.92
2022-09-15T04:30:16.077Z,20.10
2022-09-15T04:32:42.905Z,22.88
2022-09-15T04:35:10.278Z,19.85
2022-09-15T04:37:37.104Z,20.50
2022-09-15T04:40:04.284Z,17.83
2022-09-15T04:42:31.655Z,19.50
2022-09-15T04:44:58.522Z,17.50
2022-09-15T04:47:25.354Z,24.27
2022-09-15T04:49:52.218Z,21.13
2022-09-15T04:52:19.242Z,18.30
2022-09-15T04:54:46.093Z,17.88
2022-09-15T04:57:13.039Z,23.33
2022-09-15T04:59:39.968Z,20.17
2022-09-15T05:02:06.919Z,20.80
2022-09-15T05:04:35.090Z,16.20
2022-09-15T05:07:02.415Z,21.33
2022-09-15T05:09:31.082Z,18.80
2022-09-15T05:11:58.046Z,18.45
2022-09-15T05:14:24.905Z,25.73
2022-09-15T05:16:51.727Z,16.20
2022-09-15T05:19:18.610Z,17.38
2022-09-15T05:21:45.537Z,18.45
2022-09-15T05:24:14.113Z,24.95
2022-09-15T05:26:41.845Z,19.10
2022-09-15T05:29:08.869Z,18.35
2022-09-15T05:31:35.913Z,18.20
2022-09-15T05:34:05.789Z,23.90
2022-09-15T05:36:32.955Z,22.95
2022-09-15T05:39:00.398Z,17.42
2022-09-15T05:41:28.608Z,18.08
2022-09-15T05:43:57.362Z,12.88
2022-09-15T05:46:26.339Z,16.58
2022-09-15T05:51:24.339Z,13.98
2022-09-15T05:53:51.360Z,9.10
2022-09-15T05:56:18.559Z,10.13
2022-09-15T05:58:47.758Z,16.55
2022-09-15T06:01:20.322Z,10.75
2022-09-15T06:03:48.467Z,12.57
2022-09-15T06:06:16.170Z,14.55
2022-09-15T06:08:48.264Z,10.52
2022-09-15T06:11:20.593Z,9.35
2022-09-15T06:13:48.561Z,7.55
2022-09-15T06:16:21.076Z,9.00
2022-09-15T06:18:50.102Z,9.23
2022-09-15T06:21:28.457Z,9.27
2022-09-15T06:23:57.180Z,13.68
2022-09-15T06:26:24.769Z,13.18
2022-09-15T06:28:56.777Z,13.90
2022-09-15T06:31:25.430Z,10.48
2022-09-15T06:33:54.476Z,11.70
2022-09-15T06:36:24.496Z,18.20
2022-09-15T06:38:51.926Z,14.32
2022-09-15T06:41:19.181Z,10.77
2022-09-15T06:43:46.864Z,11.75
2022-09-15T06:46:18.667Z,9.20
2022-09-15T06:48:48.316Z,9.18
2022-09-15T06:51:17.514Z,11.88
2022-09-15T06:53:45.537Z,10.93
2022-09-15T06:56:21.016Z,10.40
2022-09-15T06:58:51.250Z,13.05
2022-09-15T07:01:23.840Z,17.42
2022-09-15T07:03:51.219Z,12.18
2022-09-15T07:06:18.814Z,9.95
2022-09-15T07:08:46.802Z,10.55
2022-09-15T07:11:14.621Z,11.10
2022-09-15T07:13:41.907Z,12.15
2022-09-15T07:16:10.671Z,10.55
2022-09-15T07:18:42.828Z,9.70
2022-09-15T07:21:18.563Z,5.88
2022-09-15T07:23:46.380Z,7.68
2022-09-15T07:26:14.549Z,9.10
2022-09-15T07:28:43.996Z,10.45
2022-09-15T07:31:13.999Z,8.70
2022-09-15T07:33:41.031Z,9.48
2022-09-15T07:36:09.174Z,9.93
2022-09-15T07:38:39.815Z,9.52
2022-09-15T07:41:09.300Z,9.55
2022-09-15T07:43:36.589Z,5.82
2022-09-15T07:46:04.316Z,7.07
2022-09-15T07:48:32.088Z,5.50
2022-09-15T07:51:01.977Z,7.38
2022-09-15T07:53:30.517Z,6.03
2022-09-15T07:55:58.717Z,5.88
2022-09-15T07:58:26.985Z,5.07
2022-09-15T08:00:54.067Z,6.60
2022-09-15T08:03:21.230Z,7.35
2022-09-15T08:05:48.074Z,6.65
2022-09-15T08:08:14.955Z,4.65
2022-09-15T08:10:42.044Z,9.90
2022-09-15T08:13:08.971Z,8.38
2022-09-15T08:15:37.714Z,10.30
2022-09-15T08:20:32.755Z,8.30
2022-09-15T08:22:59.719Z,4.22
2022-09-15T08:25:26.744Z,8.25
2022-09-15T08:27:54.735Z,8.65
2022-09-15T08:30:22.060Z,6.97
2022-09-15T08:32:49.755Z,13.88
2022-09-15T08:35:17.449Z,3.58
2022-09-15T08:37:44.562Z,5.93
2022-09-15T08:40:22.435Z,6.77
2022-09-15T08:42:52.976Z,5.32
2022-09-15T08:45:30.678Z,6.30
2022-09-15T08:48:01.581Z,9.00
2022-09-15T08:50:35.710Z,6.55
2022-09-15T08:53:13.149Z,10.93
2022-09-15T08:55:45.254Z,6.40
2022-09-15T08:58:16.805Z,4.82
2022-09-15T09:00:48.761Z,6.88
2022-09-15T09:03:24.303Z,9.70
2022-09-15T09:06:12.026Z,6.32
2022-09-15T09:09:25.969Z,6.68
2022-09-15T09:12:03.396Z,6.18
2022-09-15T09:14:42.045Z,8.05
2022-09-15T09:17:31.046Z,8.18
2022-09-15T09:20:03.876Z,9.93
2022-09-15T09:22:43.051Z,10.33
2022-09-15T09:25:27.930Z,4.37
2022-09-15T09:28:06.776Z,11.10
2022-09-15T09:30:48.830Z,3.77
2022-09-15T09:33:24.782Z,5.28
2022-09-15T09:35:53.189Z,8.63
2022-09-15T09:38:29.121Z,9.82
2022-09-15T09:40:59.965Z,6.78
2022-09-15T09:43:31.211Z,7.38
2022-09-15T09:45:58.258Z,7.07
2022-09-15T09:48:27.792Z,7.10
2022-09-15T09:50:55.452Z,7.43
2022-09-15T09:53:33.408Z,6.80
2022-09-15T09:56:12.591Z,12.32
2022-09-15T09:58:39.535Z,13.88
2022-09-15T10:01:15.302Z,5.60
2022-09-15T10:03:43.509Z,9.13
2022-09-15T10:06:18.831Z,7.10
2022-09-15T10:08:56.535Z,9.77
2022-09-15T10:11:40.824Z,9.65
2022-09-15T10:14:21.226Z,7.45
2022-09-15T10:17:11.056Z,9.90
2022-09-15T10:19:45.163Z,8.68
2022-09-15T10:22:33.194Z,7.22
2022-09-15T10:25:02.242Z,6.97
2022-09-15T10:27:35.143Z,7.40
2022-09-15T10:30:14.707Z,9.18
2022-09-15T10:32:42.930Z,7.88
2022-09-15T10:37:51.167Z,5.63
2022-09-15T10:40:44.904Z,7.13
2022-09-15T10:43:49.207Z,7.13
2022-09-15T10:46:24.094Z,6.68
2022-09-15T10:49:00.090Z,10.23
2022-09-15T10:51:55.038Z,12.15
2022-09-15T10:55:09.203Z,9.00
2022-09-15T10:58:06.499Z,9.32
2022-09-15T11:00:45.974Z,5.93
2022-09-15T11:03:31.092Z,6.60
2022-09-15T11:06:25.951Z,12.68
2022-09-15T11:09:04.919Z,11.65
2022-09-15T11:11:39.489Z,14.48
2022-09-15T11:14:17.526Z,5.95
2022-09-15T11:16:44.898Z,7.78
2022-09-15T11:19:26.626Z,10.13
2022-09-15T11:22:02.055Z,3.85
2022-09-15T11:24:50.906Z,7.43
2022-09-15T11:27:26.943Z,5.30
2022-09-15T11:29:53.883Z,6.65
2022-09-15T11:32:45.093Z,6.25
2022-09-15T11:35:37.480Z,8.27
2022-09-15T11:38:29.304Z,8.43
2022-09-15T11:41:17.310Z,4.75
2022-09-15T11:46:57.642Z,4.22
2022-09-15T11:49:31.537Z,6.18
2022-09-15T11:52:46.172Z,8.85
2022-09-15T11:55:39.663Z,6.15
2022-09-15T11:58:09.990Z,5.25
2022-09-15T12:00:48.846Z,7.15
2022-09-15T12:03:27.411Z,16.67
2022-09-15T12:06:03.617Z,9.20
2022-09-15T12:08:40.289Z,8.55
2022-09-15T12:11:19.878Z,7.55
2022-09-15T12:13:47.278Z,15.65
2022-09-15T12:16:16.303Z,9.63
2022-09-15T12:18:47.515Z,6.45
2022-09-15T12:21:36.046Z,9.70
2022-09-15T12:24:10.037Z,6.90
2022-09-15T12:26:46.867Z,12.46
2022-09-15T12:29:22.769Z,5.82
2022-09-15T12:32:29.937Z,4.43
2022-09-15T12:35:07.939Z,4.47
2022-09-15T12:37:43.221Z,4.97
2022-09-15T12:40:34.715Z,7.72
2022-09-15T12:43:19.870Z,7.20
2022-09-15T12:45:59.908Z,6.90
2022-09-15T12:48:35.874Z,9.30
2022-09-15T12:51:05.972Z,6.40
2022-09-15T12:53:37.990Z,7.68
2022-09-15T12:56:10.541Z,7.82
2022-09-15T12:58:49.495Z,7.10
2022-09-15T13:01:19.511Z,8.77
2022-09-15T13:03:46.692Z,4.13
2022-09-15T13:06:26.805Z,7.30
2022-09-15T13:09:01.322Z,6.38
2022-09-15T13:11:37.520Z,6.93
2022-09-15T13:14:04.590Z,7.80
2022-09-15T13:16:33.876Z,6.15
2022-09-15T13:19:29.566Z,7.13
2022-09-15T13:22:11.640Z,4.68
2022-09-15T13:25:15.720Z,10.93
2022-09-15T13:27:44.024Z,3.08
2022-09-15T13:30:26.118Z,8.70
2022-09-15T13:32:59.124Z,9.40
2022-09-15T13:35:51.961Z,7.72
2022-09-15T13:38:29.265Z,5.53
2022-09-15T13:40:58.570Z,6.78
2022-09-15T13:43:56.516Z,7.83
2022-09-15T13:46:41.679Z,9.73
2022-09-15T13:49:27.856Z,7.30
2022-09-15T13:52:08.341Z,10.48
2022-09-15T13:54:35.435Z,14.55
2022-09-15T13:57:02.847Z,7.18
2022-09-15T13:59:32.825Z,8.25
2022-09-15T14:02:00.959Z,12.55
2022-09-15T14:04:32.208Z,6.47
2022-09-15T14:07:01.740Z,9.63
2022-09-15T14:09:34.866Z,7.07
2022-09-15T14:12:07.681Z,8.48
2022-09-15T14:14:42.839Z,3.80
2022-09-15T14:17:30.343Z,7.03
2022-09-15T14:19:59.914Z,4.97
2022-09-15T14:22:31.588Z,8.02
2022-09-15T14:25:00.534Z,8.48
2022-09-15T14:27:30.189Z,8.15
2022-09-15T14:30:01.361Z,10.57
2022-09-15T14:32:31.695Z,9.98
2022-09-15T14:35:00.987Z,7.70
2022-09-15T14:37:32.250Z,7.47
2022-09-15T14:40:02.198Z,8.30
2022-09-15T14:42:41.573Z,11.57
2022-09-15T14:48:02.006Z,10.30
2022-09-15T14:50:33.202Z,6.07
2022-09-15T14:53:20.488Z,7.15
2022-09-15T14:56:07.072Z,7.70
2022-09-15T14:58:42.664Z,14.25
2022-09-15T15:01:17.410Z,6.05
2022-09-15T15:04:01.613Z,6.43
2022-09-15T15:06:41.815Z,9.35
2022-09-15T15:09:14.682Z,5.93
2022-09-15T15:11:42.268Z,7.90
2022-09-15T15:14:12.154Z,8.63
2022-09-15T15:16:52.416Z,8.63
2022-09-15T15:19:32.042Z,8.90
2022-09-15T15:22:20.135Z,7.57
2022-09-15T15:24:52.711Z,7.40
2022-09-15T15:27:34.908Z,9.27
2022-09-15T15:30:33.159Z,10.35
2022-09-15T15:33:04.673Z,10.73
2022-09-15T15:35:33.225Z,11.55
2022-09-15T15:38:08.095Z,8.18
2022-09-15T15:40:37.606Z,11.13
2022-09-15T15:43:08.062Z,8.35
2022-09-15T15:45:36.426Z,6.68
2022-09-15T15:48:04.528Z,4.80
2022-09-15T15:50:32.836Z,10.20
2022-09-15T15:58:06.782Z,11.93
2022-09-15T16:00:45.744Z,8.93
2022-09-15T16:03:13.963Z,12.00
2022-09-15T16:08:27.269Z,9.43
2022-09-15T16:10:55.494Z,4.70
2022-09-15T16:13:23.809Z,10.43
2022-09-15T16:18:18.215Z,14.70
2022-09-15T16:20:45.256Z,14.23
2022-09-15T16:23:15.316Z,9.07
2022-09-15T16:25:49.908Z,8.85
2022-09-15T16:28:17.578Z,19.25
2022-09-15T16:30:44.961Z,11.48
2022-09-15T16:33:16.290Z,11.00
2022-09-15T16:35:51.919Z,10.88
2022-09-15T16:38:20.359Z,7.47
2022-09-15T16:40:51.357Z,16.48
2022-09-15T16:43:23.715Z,14.15
2022-09-15T16:45:51.655Z,17.33
2022-09-15T16:48:19.182Z,12.35
2022-09-15T16:51:02.447Z,12.48
2022-09-15T16:56:01.174Z,16.95
2022-09-15T16:58:28.615Z,15.95
2022-09-15T17:00:56.801Z,16.25
2022-09-15T17:03:25.729Z,21.83
2022-09-15T17:05:57.868Z,18.33
2022-09-15T17:08:29.570Z,17.70
2022-09-15T17:10:58.422Z,52.47
2022-09-15T17:13:29.532Z,20.35
2022-09-15T17:15:58.358Z,21.52
2022-09-15T17:18:25.996Z,18.40
2022-09-15T17:20:53.238Z,21.23
2022-09-15T17:23:24.222Z,15.00
2022-09-15T17:25:53.551Z,11.80
2022-09-15T17:28:23.453Z,21.85
2022-09-15T17:30:53.349Z,21.27
2022-09-15T17:33:21.199Z,18.33
2022-09-15T17:35:49.353Z,20.77
2022-09-15T17:38:20.262Z,21.42
2022-09-15T17:40:48.581Z,19.15
2022-09-15T17:43:20.977Z,17.05
2022-09-15T17:45:49.184Z,22.52
2022-09-15T17:48:16.475Z,24.77
2022-09-15T17:50:45.340Z,32.40
2022-09-15T17:53:15.148Z,30.92
2022-09-15T17:55:45.947Z,22.23
2022-09-15T17:58:13.189Z,16.55
2022-09-15T18:00:42.649Z,33.35
2022-09-15T18:03:35.130Z,24.35
2022-09-15T18:06:05.370Z,16.50
2022-09-15T18:08:36.346Z,20.20
2022-09-15T18:11:05.662Z,23.88
2022-09-15T18:13:33.678Z,28.65
2022-09-15T18:16:10.384Z,26.38
2022-09-15T18:18:38.153Z,21.70
2022-09-15T18:21:09.870Z,27.13
2022-09-15T18:23:37.683Z,25.67
2022-09-15T18:26:04.610Z,18.70
2022-09-15T18:28:31.513Z,23.00
2022-09-15T18:30:58.922Z,17.83
2022-09-15T18:33:26.264Z,19.33
2022-09-15T18:35:55.623Z,22.73
2022-09-15T18:38:23.065Z,17.23
2022-09-15T18:40:53.563Z,17.55
2022-09-15T18:43:22.087Z,21.40
2022-09-15T18:45:49.819Z,28.73
2022-09-15T18:48:17.027Z,23.87
2022-09-15T18:50:45.940Z,23.08
2022-09-15T18:53:13.419Z,20.35
2022-09-15T18:55:42.083Z,20.13
2022-09-15T19:00:36.144Z,25.50
2022-09-15T19:03:05.672Z,23.48
2022-09-15T19:05:33.152Z,27.38
2022-09-15T19:08:00.641Z,20.38
2022-09-15T19:10:27.592Z,23.63
2022-09-15T19:12:54.735Z,31.15
2022-09-15T19:15:25.052Z,25.15
2022-09-15T19:17:52.002Z,21.33
2022-09-15T19:20:19.161Z,23.55
2022-09-15T19:22:46.519Z,16.95
2022-09-15T19:25:14.001Z,22.67
2022-09-15T19:27:41.473Z,19.73
2022-09-15T19:30:10.241Z,18.45
2022-09-15T19:32:38.458Z,20.60
2022-09-15T19:35:06.398Z,18.73
2022-09-15T19:37:37.546Z,12.63
2022-09-15T19:40:10.105Z,14.02
2022-09-15T19:42:38.840Z,11.95
2022-09-15T19:45:06.867Z,12.20
2022-09-15T19:47:34.336Z,15.38
2022-09-15T19:50:01.382Z,10.43
2022-09-15T19:52:28.587Z,6.30
2022-09-15T19:54:55.479Z,10.27
2022-09-15T19:57:22.739Z,9.27
2022-09-15T19:59:50.174Z,8.23
2022-09-15T20:02:17.754Z,8.02
2022-09-15T20:04:44.955Z,11.15
2022-09-15T20:07:12.764Z,17.90
2022-09-15T20:09:39.620Z,8.53
2022-09-15T20:12:06.820Z,14.82
2022-09-15T20:14:33.840Z,10.63
2022-09-15T20:17:01.430Z,11.57
2022-09-15T20:19:29.494Z,10.05
2022-09-15T20:21:56.506Z,13.77
2022-09-15T20:24:24.345Z,11.43
2022-09-15T20:26:51.764Z,15.30
2022-09-15T20:29:19.303Z,14.23
2022-09-15T20:31:46.589Z,13.95
2022-09-15T20:34:13.654Z,10.90
2022-09-15T20:36:40.850Z,7.88
2022-09-15T20:39:13.191Z,8.60
2022-09-15T20:41:41.712Z,8.82
2022-09-15T20:44:12.026Z,15.20
2022-09-15T20:46:39.073Z,12.00
2022-09-15T20:49:06.929Z,7.35
2022-09-15T20:51:34.046Z,7.23
2022-09-15T20:54:03.834Z,9.70
2022-09-15T20:56:32.386Z,9.85
2022-09-15T20:59:00.124Z,10.30
2022-09-15T21:01:35.390Z,10.38
2022-09-15T21:04:02.579Z,12.32
2022-09-15T21:06:29.821Z,11.55
2022-09-15T21:08:57.864Z,8.32
2022-09-15T21:11:30.225Z,5.43
2022-09-15T21:13:57.584Z,4.95
2022-09-15T21:16:27.613Z,9.88
2022-09-15T21:18:56.450Z,9.40
2022-09-15T21:23:56.829Z,7.32
2022-09-15T21:26:31.695Z,6.65
2022-09-15T21:28:58.625Z,4.65
2022-09-15T21:31:28.224Z,10.40
2022-09-15T21:33:56.810Z,8.27
2022-09-15T21:36:26.370Z,8.48
2022-09-15T21:38:55.162Z,5.20
2022-09-15T21:43:55.738Z,10.48
2022-09-15T21:46:28.841Z,5.53
2022-09-15T21:48:57.776Z,6.40
2022-09-15T21:51:26.577Z,11.93
2022-09-15T21:56:22.069Z,5.18
2022-09-15T21:58:49.203Z,15.75
2022-09-15T22:01:25.879Z,13.57
2022-09-15T22:03:58.842Z,9.82
2022-09-15T22:06:32.146Z,4.93
2022-09-15T22:09:05.773Z,8.52
2022-09-15T22:11:33.153Z,6.55
2022-09-15T22:14:03.057Z,8.00
2022-09-15T22:16:30.447Z,7.53
2022-09-15T22:18:57.693Z,8.20
2022-09-15T22:21:27.509Z,9.60
2022-09-15T22:23:56.781Z,10.50
2022-09-15T22:26:32.539Z,7.68
2022-09-15T22:29:00.306Z,5.90
2022-09-15T22:31:28.645Z,6.40
2022-09-15T22:33:55.686Z,7.15
2022-09-15T22:36:28.913Z,8.73
2022-09-15T22:39:03.020Z,6.72
2022-09-15T22:41:31.419Z,7.13
2022-09-15T22:43:58.384Z,12.25
2022-09-15T22:46:25.476Z,9.18
2022-09-15T22:48:52.344Z,7.97
2022-09-15T22:51:19.283Z,5.75
2022-09-15T22:53:46.188Z,5.43
2022-09-15T22:56:14.747Z,6.13
2022-09-15T22:58:46.695Z,5.25
2022-09-15T23:01:17.003Z,4.43
2022-09-15T23:03:47.635Z,5.53
2022-09-15T23:06:14.808Z,8.43
2022-09-15T23:08:41.775Z,10.23
2022-09-15T23:11:13.907Z,9.35
2022-09-15T23:13:41.667Z,9.73
2022-09-15T23:16:09.308Z,9.30
2022-09-15T23:18:36.811Z,6.40
2022-09-15T23:21:09.104Z,5.85
2022-09-15T23:23:38.409Z,6.63
2022-09-15T23:26:10.275Z,8.90
2022-09-15T23:28:39.219Z,7.22
2022-09-15T23:31:06.952Z,6.53
2022-09-15T23:33:34.027Z,5.82
2022-09-15T23:36:03.706Z,6.25
2022-09-15T23:38:34.673Z,8.60
2022-09-15T23:41:01.932Z,5.70
2022-09-15T23:43:28.730Z,5.63
2022-09-15T23:45:55.567Z,7.78
2022-09-15T23:48:23.503Z,6.40
2022-09-15T23:50:50.629Z,11.75
2022-09-15T23:53:18.304Z,8.52
2022-09-15T23:55:46.750Z,4.70
2022-09-15T23:58:13.745Z,7.85
